createdAt,value
2023-05-19T00:02:21.057Z,2.50
2023-05-19T00:04:48.496Z,2.40
2023-05-19T00:07:18.962Z,2.20
2023-05-19T00:09:46.243Z,2.20
2023-05-19T00:12:13.814Z,2.43
2023-05-19T00:14:41.099Z,2.23
2023-05-19T00:17:08.451Z,2.43
2023-05-19T00:19:35.604Z,2.50
2023-05-19T00:22:02.733Z,2.53
2023-05-19T00:24:29.886Z,2.60
2023-05-19T00:26:57.075Z,2.50
2023-05-19T00:29:24.222Z,2.33
2023-05-19T00:31:51.460Z,2.20
2023-05-19T00:34:18.612Z,2.40
2023-05-19T00:36:45.935Z,2.67
2023-05-19T00:39:13.099Z,2.20
2023-05-19T00:41:40.268Z,2.37
2023-05-19T00:44:07.874Z,2.43
2023-05-19T00:46:35.114Z,2.30
2023-05-19T00:49:02.296Z,2.77
2023-05-19T00:51:29.775Z,2.23
2023-05-19T00:53:56.981Z,2.30
2023-05-19T00:56:24.171Z,2.43
2023-05-19T00:58:55.678Z,2.30
2023-05-19T01:01:22.931Z,2.47
2023-05-19T01:03:50.432Z,2.53
2023-05-19T01:06:19.132Z,2.43
2023-05-19T01:08:46.578Z,2.40
2023-05-19T01:11:13.707Z,1.83
2023-05-19T01:13:42.284Z,2.70
2023-05-19T01:16:14.710Z,2.90
2023-05-19T01:18:56.226Z,2.47
2023-05-19T01:21:31.367Z,2.80
2023-05-19T01:24:09.209Z,2.67
2023-05-19T01:27:05.544Z,2.47
2023-05-19T01:29:38.593Z,2.60
2023-05-19T01:32:07.330Z,2.43
2023-05-19T01:34:36.091Z,2.60
2023-05-19T01:37:03.692Z,2.50
2023-05-19T01:39:31.015Z,2.40
2023-05-19T01:41:58.993Z,2.30
2023-05-19T01:44:26.157Z,2.50
2023-05-19T01:46:53.679Z,2.40
2023-05-19T01:49:20.922Z,2.57
2023-05-19T01:51:48.187Z,2.90
2023-05-19T01:54:15.338Z,3.23
2023-05-19T01:56:47.439Z,2.30
2023-05-19T01:59:24.917Z,2.70
2023-05-19T02:01:58.014Z,2.57
2023-05-19T02:04:28.375Z,2.63
2023-05-19T02:07:08.521Z,2.80
2023-05-19T02:09:40.451Z,2.47
2023-05-19T02:12:10.351Z,2.57
2023-05-19T02:14:42.729Z,2.43
2023-05-19T02:17:11.238Z,2.60
2023-05-19T02:19:40.091Z,2.93
2023-05-19T02:22:07.543Z,2.97
2023-05-19T02:24:34.675Z,2.60
2023-05-19T02:27:02.654Z,2.73
2023-05-19T02:29:30.028Z,2.90
2023-05-19T02:31:57.201Z,2.50
2023-05-19T02:34:24.430Z,2.90
2023-05-19T02:36:51.640Z,2.53
2023-05-19T02:39:18.810Z,2.53
2023-05-19T02:41:45.954Z,2.87
2023-05-19T02:44:13.062Z,2.73
2023-05-19T02:46:40.350Z,2.67
2023-05-19T02:49:07.985Z,2.50
2023-05-19T02:51:35.130Z,2.83
2023-05-19T02:54:02.287Z,2.60
2023-05-19T02:56:29.454Z,2.27
2023-05-19T02:58:56.784Z,2.53
2023-05-19T03:01:23.960Z,2.60
2023-05-19T03:03:51.337Z,2.60
2023-05-19T03:06:18.564Z,2.67
2023-05-19T03:08:45.998Z,2.50
2023-05-19T03:11:13.223Z,2.60
2023-05-19T03:13:40.371Z,2.57
2023-05-19T03:16:08.372Z,2.63
2023-05-19T03:18:36.124Z,2.63
2023-05-19T03:21:03.255Z,2.67
2023-05-19T03:23:30.375Z,2.53
2023-05-19T03:25:57.529Z,2.60
2023-05-19T03:28:24.705Z,2.47
2023-05-19T03:30:51.922Z,2.50
2023-05-19T03:33:19.133Z,2.23
2023-05-19T03:35:46.494Z,2.60
2023-05-19T03:38:13.705Z,2.83
2023-05-19T03:40:41.745Z,2.70
2023-05-19T03:43:08.888Z,2.73
2023-05-19T03:45:36.045Z,2.30
2023-05-19T03:48:03.361Z,2.60
2023-05-19T03:50:31.732Z,2.53
2023-05-19T03:52:59.180Z,2.77
2023-05-19T03:55:26.443Z,2.50
2023-05-19T03:57:53.666Z,2.70
2023-05-19T04:00:20.897Z,2.37
2023-05-19T04:02:48.174Z,2.27
2023-05-19T04:05:15.514Z,2.77
2023-05-19T04:07:43.146Z,2.60
2023-05-19T04:10:10.586Z,2.57
2023-05-19T04:12:37.731Z,2.63
2023-05-19T04:15:06.047Z,2.40
2023-05-19T04:17:33.354Z,2.37
2023-05-19T04:20:01.112Z,2.43
2023-05-19T04:22:28.314Z,2.47
2023-05-19T04:24:56.272Z,2.40
2023-05-19T04:27:23.569Z,2.40
2023-05-19T04:29:50.748Z,2.53
2023-05-19T04:32:18.072Z,2.40
2023-05-19T04:34:46.103Z,2.63
2023-05-19T04:37:16.524Z,2.53
2023-05-19T04:39:45.303Z,2.40
2023-05-19T04:42:13.325Z,2.23
2023-05-19T04:44:40.555Z,2.33
2023-05-19T04:47:09.055Z,2.60
2023-05-19T04:49:39.697Z,2.30
2023-05-19T04:52:13.683Z,2.60
2023-05-19T04:54:41.811Z,2.67
2023-05-19T04:57:10.487Z,2.57
2023-05-19T04:59:37.740Z,2.70
2023-05-19T05:02:05.052Z,2.50
2023-05-19T05:04:32.605Z,2.30
2023-05-19T05:06:59.732Z,2.27
2023-05-19T05:09:26.854Z,1.97
2023-05-19T05:11:54.209Z,2.67
2023-05-19T05:14:21.527Z,2.53
2023-05-19T05:16:48.872Z,1.93
2023-05-19T05:19:16.216Z,2.13
2023-05-19T05:21:43.533Z,2.30
2023-05-19T05:24:11.120Z,2.53
2023-05-19T05:26:38.708Z,2.43
2023-05-19T05:29:06.493Z,2.40
2023-05-19T05:31:33.723Z,1.97
2023-05-19T05:34:01.041Z,2.70
2023-05-19T05:36:28.260Z,2.43
2023-05-19T05:38:55.507Z,2.37
2023-05-19T05:41:22.682Z,2.50
2023-05-19T05:43:49.839Z,2.20
2023-05-19T05:46:17.580Z,2.10
2023-05-19T05:48:44.896Z,2.10
2023-05-19T05:51:12.179Z,2.00
2023-05-19T05:53:44.652Z,2.20
2023-05-19T05:56:12.352Z,2.03
2023-05-19T05:58:40.747Z,2.10
2023-05-19T06:01:11.207Z,2.20
2023-05-19T06:03:42.700Z,1.80
2023-05-19T06:06:09.960Z,2.37
2023-05-19T06:08:37.202Z,2.30
2023-05-19T06:11:09.156Z,1.73
2023-05-19T06:13:36.887Z,2.30
2023-05-19T06:16:04.222Z,2.22
2023-05-19T06:18:31.398Z,1.88
2023-05-19T06:20:58.620Z,2.30
2023-05-19T06:23:26.853Z,2.33
2023-05-19T06:25:54.068Z,2.47
2023-05-19T06:28:21.216Z,2.40
2023-05-19T06:30:48.340Z,2.30
2023-05-19T06:33:15.488Z,2.20
2023-05-19T06:35:42.700Z,2.22
2023-05-19T06:38:09.876Z,2.20
2023-05-19T06:40:37.264Z,2.30
2023-05-19T06:43:04.952Z,2.10
2023-05-19T06:45:32.281Z,2.10
2023-05-19T06:47:59.642Z,2.53
2023-05-19T06:50:26.940Z,2.40
2023-05-19T06:52:54.100Z,1.83
2023-05-19T06:55:21.272Z,2.22
2023-05-19T06:57:48.469Z,2.30
2023-05-19T07:00:18.311Z,2.28
2023-05-19T07:02:47.203Z,2.30
2023-05-19T07:05:14.802Z,2.47
2023-05-19T07:07:42.593Z,2.38
2023-05-19T07:10:10.486Z,2.17
2023-05-19T07:12:37.630Z,2.10
2023-05-19T07:15:04.990Z,2.22
2023-05-19T07:17:32.171Z,2.60
2023-05-19T07:19:59.367Z,2.13
2023-05-19T07:22:26.537Z,2.50
2023-05-19T07:24:53.680Z,2.50
2023-05-19T07:27:20.925Z,2.47
2023-05-19T07:29:48.073Z,2.28
2023-05-19T07:32:15.466Z,2.45
2023-05-19T07:34:42.707Z,2.40
2023-05-19T07:37:09.916Z,2.70
2023-05-19T07:39:37.139Z,2.58
2023-05-19T07:42:04.350Z,2.28
2023-05-19T07:44:31.558Z,2.53
2023-05-19T07:46:58.950Z,2.30
2023-05-19T07:49:26.123Z,2.70
2023-05-19T07:51:53.420Z,2.53
2023-05-19T07:54:21.413Z,2.60
2023-05-19T07:56:48.583Z,2.53
2023-05-19T07:59:16.350Z,2.28
2023-05-19T08:01:43.576Z,2.65
2023-05-19T08:04:13.170Z,2.70
2023-05-19T08:06:42.726Z,2.60
2023-05-19T08:09:09.927Z,2.33
2023-05-19T08:11:37.097Z,2.67
2023-05-19T08:14:04.343Z,2.60
2023-05-19T08:16:31.575Z,2.63
2023-05-19T08:19:01.154Z,2.67
2023-05-19T08:21:28.349Z,2.60
2023-05-19T08:23:55.895Z,2.38
2023-05-19T08:26:23.113Z,2.42
2023-05-19T08:28:50.513Z,2.70
2023-05-19T08:31:18.406Z,2.50
2023-05-19T08:33:45.810Z,2.50
2023-05-19T08:36:13.020Z,2.78
2023-05-19T08:38:40.325Z,2.60
2023-05-19T08:41:07.539Z,2.53
2023-05-19T08:43:34.870Z,2.60
2023-05-19T08:46:02.110Z,2.30
2023-05-19T08:48:31.250Z,2.30
2023-05-19T08:51:06.918Z,2.67
2023-05-19T08:53:38.089Z,2.53
2023-05-19T08:56:14.504Z,2.65
2023-05-19T08:58:43.856Z,2.13
2023-05-19T09:01:17.125Z,2.50
2023-05-19T09:03:49.898Z,2.60
2023-05-19T09:06:17.473Z,2.60
2023-05-19T09:08:45.059Z,2.70
2023-05-19T09:11:12.802Z,2.70
2023-05-19T09:13:40.391Z,3.08
2023-05-19T09:16:08.327Z,2.67
2023-05-19T09:18:39.894Z,2.42
2023-05-19T09:21:07.531Z,2.67
2023-05-19T09:23:34.803Z,2.60
2023-05-19T09:26:08.823Z,2.30
2023-05-19T09:28:38.367Z,2.58
2023-05-19T09:31:09.818Z,2.85
2023-05-19T09:33:37.684Z,2.60
2023-05-19T09:36:11.596Z,2.67
2023-05-19T09:38:39.354Z,2.53
2023-05-19T09:41:07.415Z,2.45
2023-05-19T09:43:35.754Z,2.63
2023-05-19T09:46:07.316Z,2.83
2023-05-19T09:48:36.557Z,2.33
2023-05-19T09:51:06.260Z,2.70
2023-05-19T09:53:34.888Z,2.83
2023-05-19T09:56:04.050Z,2.67
2023-05-19T09:58:37.659Z,2.70
2023-05-19T10:01:05.941Z,2.55
2023-05-19T10:03:34.265Z,2.40
2023-05-19T10:06:09.308Z,2.67
2023-05-19T10:08:37.289Z,2.20
2023-05-19T10:11:04.660Z,2.35
2023-05-19T10:13:32.473Z,2.63
2023-05-19T10:16:00.387Z,2.63
2023-05-19T10:18:29.603Z,2.10
2023-05-19T10:20:57.889Z,2.63
2023-05-19T10:23:25.771Z,3.55
2023-05-19T10:25:55.259Z,2.70
2023-05-19T10:28:25.373Z,2.40
2023-05-19T10:30:54.988Z,2.65
2023-05-19T10:33:23.837Z,2.30
2023-05-19T10:35:54.146Z,2.40
2023-05-19T10:38:27.368Z,1.95
2023-05-19T10:41:01.407Z,2.50
2023-05-19T10:43:40.675Z,1.95
2023-05-19T10:46:07.855Z,2.20
2023-05-19T10:48:38.340Z,2.40
2023-05-19T10:51:06.285Z,2.20
2023-05-19T10:53:34.919Z,2.38
2023-05-19T10:56:04.050Z,2.35
2023-05-19T10:58:52.261Z,2.20
2023-05-19T11:01:20.915Z,1.92
2023-05-19T11:03:48.213Z,1.98
2023-05-19T11:06:32.030Z,1.80
2023-05-19T11:09:15.458Z,2.47
2023-05-19T11:11:47.392Z,2.05
2023-05-19T11:14:16.528Z,1.90
2023-05-19T11:16:45.713Z,2.20
2023-05-19T11:19:20.075Z,2.20
2023-05-19T11:21:57.627Z,2.22
2023-05-19T11:24:33.720Z,2.10
2023-05-19T11:27:00.971Z,2.30
2023-05-19T11:29:28.406Z,2.13
2023-05-19T11:31:55.819Z,2.28
2023-05-19T11:34:25.967Z,2.42
2023-05-19T11:36:53.729Z,2.58
2023-05-19T11:39:21.080Z,2.10
2023-05-19T11:41:48.196Z,2.70
2023-05-19T11:44:15.345Z,2.60
2023-05-19T11:46:42.530Z,2.20
2023-05-19T11:49:10.002Z,2.17
2023-05-19T11:51:38.295Z,2.60
2023-05-19T11:54:05.782Z,2.20
2023-05-19T11:56:40.705Z,2.17
2023-05-19T11:59:08.536Z,2.45
2023-05-19T12:01:36.190Z,2.08
2023-05-19T12:04:08.311Z,2.10
2023-05-19T12:06:35.502Z,2.05
2023-05-19T12:09:02.736Z,1.90
2023-05-19T12:11:30.023Z,2.20
2023-05-19T12:14:00.063Z,2.33
2023-05-19T12:16:34.270Z,2.22
2023-05-19T12:19:01.821Z,1.92
2023-05-19T12:21:34.383Z,1.90
2023-05-19T12:24:02.103Z,1.83
2023-05-19T12:26:29.265Z,1.80
2023-05-19T12:28:56.394Z,2.10
2023-05-19T12:31:24.016Z,1.85
2023-05-19T12:33:52.028Z,2.10
2023-05-19T12:36:20.313Z,2.13
2023-05-19T12:38:48.396Z,1.80
2023-05-19T12:41:15.681Z,2.00
2023-05-19T12:43:42.884Z,2.20
2023-05-19T12:46:11.079Z,1.90
2023-05-19T12:48:41.956Z,1.80
2023-05-19T12:51:09.978Z,2.40
2023-05-19T12:53:38.149Z,2.10
2023-05-19T12:56:17.876Z,1.95
2023-05-19T12:58:45.973Z,1.80
2023-05-19T13:01:17.451Z,1.95
2023-05-19T13:03:44.968Z,1.80
2023-05-19T13:06:12.461Z,1.70
2023-05-19T13:08:42.681Z,1.80
2023-05-19T13:11:09.829Z,1.80
2023-05-19T13:13:36.985Z,1.80
2023-05-19T13:16:04.188Z,2.10
2023-05-19T13:18:32.512Z,1.80
2023-05-19T13:20:59.718Z,2.20
2023-05-19T13:23:27.043Z,1.63
2023-05-19T13:25:54.261Z,2.10
2023-05-19T13:28:21.438Z,2.22
2023-05-19T13:30:49.709Z,2.15
2023-05-19T13:33:17.117Z,2.00
2023-05-19T13:35:44.357Z,2.13
2023-05-19T13:38:11.750Z,2.60
2023-05-19T13:40:39.792Z,1.95
2023-05-19T13:43:08.531Z,2.20
2023-05-19T13:45:35.859Z,2.20
2023-05-19T13:48:03.314Z,2.08
2023-05-19T13:50:30.646Z,2.10
2023-05-19T13:52:57.832Z,2.42
2023-05-19T13:55:27.404Z,2.38
2023-05-19T13:57:54.619Z,2.50
2023-05-19T14:00:22.022Z,1.90
2023-05-19T14:02:49.262Z,2.17
2023-05-19T14:05:16.582Z,2.17
2023-05-19T14:07:44.550Z,2.30
2023-05-19T14:10:11.965Z,2.15
2023-05-19T14:12:49.430Z,2.22
2023-05-19T14:15:25.643Z,2.42
2023-05-19T14:17:53.581Z,1.95
2023-05-19T14:20:21.013Z,2.20
2023-05-19T14:22:48.232Z,2.10
2023-05-19T14:25:15.474Z,2.10
2023-05-19T14:27:42.614Z,2.08
2023-05-19T14:30:09.949Z,2.05
2023-05-19T14:32:37.125Z,2.30
2023-05-19T14:35:04.420Z,2.92
2023-05-19T14:37:32.199Z,2.30
2023-05-19T14:39:59.586Z,1.98
2023-05-19T14:42:26.758Z,2.33
2023-05-19T14:44:53.919Z,2.15
2023-05-19T14:47:21.381Z,2.25
2023-05-19T14:49:48.673Z,2.35
2023-05-19T14:52:15.891Z,1.90
2023-05-19T14:54:43.063Z,1.92
2023-05-19T14:57:10.322Z,2.15
2023-05-19T14:59:38.046Z,1.88
2023-05-19T15:02:05.558Z,2.13
2023-05-19T15:04:32.713Z,2.00
2023-05-19T15:07:09.682Z,2.00
2023-05-19T15:09:37.744Z,2.00
2023-05-19T15:12:05.144Z,1.80
2023-05-19T15:14:32.295Z,1.90
2023-05-19T15:16:59.908Z,1.80
2023-05-19T15:19:27.381Z,1.90
2023-05-19T15:21:54.865Z,1.70
2023-05-19T15:24:22.566Z,1.95
2023-05-19T15:26:49.780Z,1.80
2023-05-19T15:29:16.913Z,1.75
2023-05-19T15:31:44.095Z,1.73
2023-05-19T15:34:11.250Z,1.75
2023-05-19T15:36:38.499Z,1.80
2023-05-19T15:39:06.512Z,1.90
2023-05-19T15:41:33.706Z,2.00
2023-05-19T15:44:00.981Z,2.17
2023-05-19T15:46:28.309Z,1.85
2023-05-19T15:48:55.866Z,2.08
2023-05-19T15:51:23.189Z,1.70
2023-05-19T15:53:50.339Z,1.80
2023-05-19T15:56:19.303Z,1.95
2023-05-19T15:58:46.599Z,1.90
2023-05-19T16:01:14.241Z,1.88
2023-05-19T16:03:41.558Z,1.73
2023-05-19T16:06:08.812Z,1.77
2023-05-19T16:08:36.026Z,1.83
2023-05-19T16:11:04.442Z,1.73
2023-05-19T16:13:33.523Z,1.88
2023-05-19T16:16:00.830Z,2.13
2023-05-19T16:18:29.294Z,1.90
2023-05-19T16:20:56.613Z,1.85
2023-05-19T16:23:24.785Z,2.05
2023-05-19T16:25:52.315Z,1.65
2023-05-19T16:28:19.536Z,1.90
2023-05-19T16:30:46.798Z,1.70
2023-05-19T16:33:14.093Z,2.10
2023-05-19T16:35:41.344Z,1.95
2023-05-19T16:38:08.500Z,1.80
2023-05-19T16:40:36.118Z,1.75
2023-05-19T16:43:03.473Z,1.95
2023-05-19T16:45:30.727Z,1.80
2023-05-19T16:47:57.930Z,1.80
2023-05-19T16:50:25.129Z,1.77
2023-05-19T16:52:52.306Z,1.90
2023-05-19T16:55:20.264Z,1.80
2023-05-19T16:57:47.660Z,1.75
2023-05-19T17:00:15.242Z,2.08
2023-05-19T17:02:42.482Z,1.80
2023-05-19T17:05:09.996Z,1.70
2023-05-19T17:07:37.258Z,1.92
2023-05-19T17:10:04.607Z,1.80
2023-05-19T17:12:31.768Z,1.80
2023-05-19T17:14:58.892Z,2.00
2023-05-19T17:17:26.183Z,1.80
2023-05-19T17:19:53.470Z,2.03
2023-05-19T17:22:20.694Z,1.85
2023-05-19T17:24:47.994Z,1.92
2023-05-19T17:27:15.320Z,1.65
2023-05-19T17:29:42.568Z,1.90
2023-05-19T17:32:09.793Z,1.70
2023-05-19T17:34:36.965Z,1.77
2023-05-19T17:37:04.224Z,1.90
2023-05-19T17:39:31.348Z,1.90
2023-05-19T17:41:58.567Z,2.00
2023-05-19T17:44:25.755Z,2.22
2023-05-19T17:46:53.082Z,2.30
2023-05-19T17:49:22.954Z,2.00
2023-05-19T17:51:50.327Z,2.08
2023-05-19T17:54:17.777Z,2.30
2023-05-19T17:56:44.978Z,2.30
2023-05-19T17:59:12.444Z,2.20
2023-05-19T18:01:40.838Z,1.83
2023-05-19T18:04:08.531Z,2.20
2023-05-19T18:06:38.450Z,1.77
2023-05-19T18:09:09.024Z,2.00
2023-05-19T18:11:36.576Z,2.00
2023-05-19T18:14:03.820Z,1.80
2023-05-19T18:16:31.243Z,1.80
2023-05-19T18:18:58.756Z,2.10
2023-05-19T18:21:26.819Z,2.00
2023-05-19T18:23:54.013Z,2.53
2023-05-19T18:26:21.553Z,2.33
2023-05-19T18:28:48.776Z,2.15
2023-05-19T18:31:19.179Z,2.25
2023-05-19T18:33:47.309Z,2.00
2023-05-19T18:36:16.428Z,2.15
2023-05-19T18:38:43.757Z,2.15
2023-05-19T18:41:11.220Z,2.50
2023-05-19T18:43:39.082Z,2.30
2023-05-19T18:46:06.708Z,2.13
2023-05-19T18:48:34.010Z,2.30
2023-05-19T18:51:03.442Z,2.50
2023-05-19T18:53:34.004Z,2.40
2023-05-19T18:56:01.146Z,2.60
2023-05-19T18:58:28.294Z,2.28
2023-05-19T19:00:58.590Z,2.17
2023-05-19T19:03:26.566Z,2.50
2023-05-19T19:05:56.905Z,2.00
2023-05-19T19:08:24.302Z,2.03
2023-05-19T19:10:52.068Z,2.47
2023-05-19T19:13:19.411Z,2.40
2023-05-19T19:15:46.649Z,2.23
2023-05-19T19:18:13.909Z,2.60
2023-05-19T19:20:41.165Z,2.47
2023-05-19T19:23:08.419Z,2.70
2023-05-19T19:25:35.616Z,2.00
2023-05-19T19:28:03.587Z,2.50
2023-05-19T19:30:30.839Z,2.33
2023-05-19T19:32:59.479Z,2.40
2023-05-19T19:35:26.750Z,2.20
2023-05-19T19:37:54.050Z,2.40
2023-05-19T19:40:21.321Z,2.50
2023-05-19T19:42:48.496Z,2.50
2023-05-19T19:45:15.935Z,2.60
2023-05-19T19:47:43.269Z,2.73
2023-05-19T19:50:11.506Z,2.40
2023-05-19T19:52:38.714Z,2.70
2023-05-19T19:55:06.163Z,2.70
2023-05-19T19:57:34.284Z,2.47
2023-05-19T20:00:07.892Z,2.90
2023-05-19T20:02:41.058Z,2.70
2023-05-19T20:05:13.114Z,2.87
2023-05-19T20:07:40.279Z,3.00
2023-05-19T20:10:07.661Z,2.80
2023-05-19T20:12:34.843Z,2.60
2023-05-19T20:15:01.986Z,2.50
2023-05-19T20:17:29.227Z,2.50
2023-05-19T20:19:56.628Z,2.40
2023-05-19T20:22:23.785Z,2.70
2023-05-19T20:24:50.985Z,2.77
2023-05-19T20:27:18.257Z,2.77
2023-05-19T20:29:46.999Z,2.20
2023-05-19T20:32:14.213Z,2.87
2023-05-19T20:34:41.751Z,2.70
2023-05-19T20:37:08.919Z,2.70
2023-05-19T20:39:36.094Z,2.63
2023-05-19T20:42:03.253Z,2.77
2023-05-19T20:44:30.407Z,2.60
2023-05-19T20:46:57.917Z,2.57
2023-05-19T20:49:25.149Z,2.80
2023-05-19T20:51:52.302Z,2.93
2023-05-19T20:54:20.222Z,2.87
2023-05-19T20:56:47.520Z,2.90
2023-05-19T20:59:14.725Z,2.63
2023-05-19T21:01:42.260Z,2.90
2023-05-19T21:04:09.586Z,3.10
2023-05-19T21:06:36.928Z,2.50
2023-05-19T21:09:06.625Z,2.73
2023-05-19T21:11:34.391Z,2.60
2023-05-19T21:14:04.205Z,2.87
2023-05-19T21:16:32.144Z,2.70
2023-05-19T21:18:59.423Z,3.30
2023-05-19T21:21:26.967Z,3.10
2023-05-19T21:23:54.168Z,3.27
2023-05-19T21:26:22.067Z,3.07
2023-05-19T21:28:49.307Z,2.90
2023-05-19T21:31:16.583Z,3.23
2023-05-19T21:33:43.782Z,2.97
2023-05-19T21:36:10.980Z,2.90
2023-05-19T21:38:38.111Z,2.80
2023-05-19T21:41:05.401Z,2.97
2023-05-19T21:43:32.553Z,2.87
2023-05-19T21:45:59.787Z,3.03
2023-05-19T21:48:26.935Z,3.17
2023-05-19T21:50:54.744Z,2.67
2023-05-19T21:53:22.009Z,2.80
2023-05-19T21:55:49.461Z,2.93
2023-05-19T21:58:16.644Z,3.07
2023-05-19T22:00:48.339Z,2.60
2023-05-19T22:03:15.629Z,2.90
2023-05-19T22:05:42.902Z,3.07
2023-05-19T22:08:10.047Z,3.07
2023-05-19T22:10:37.402Z,2.70
2023-05-19T22:13:04.689Z,2.60
2023-05-19T22:15:31.879Z,3.17
2023-05-19T22:17:59.201Z,2.70
2023-05-19T22:20:26.404Z,3.40
2023-05-19T22:22:53.517Z,2.83
2023-05-19T22:25:20.795Z,3.00
2023-05-19T22:27:47.952Z,2.80
2023-05-19T22:30:15.680Z,2.80
2023-05-19T22:32:42.869Z,2.93
2023-05-19T22:35:12.298Z,2.90
2023-05-19T22:37:39.789Z,2.80
2023-05-19T22:40:07.399Z,3.20
2023-05-19T22:42:34.544Z,3.13
2023-05-19T22:45:01.746Z,3.00
2023-05-19T22:47:29.723Z,3.10
2023-05-19T22:49:57.246Z,3.03
2023-05-19T22:52:24.682Z,3.10
2023-05-19T22:54:51.830Z,3.20
2023-05-19T22:57:19.408Z,3.50
2023-05-19T22:59:46.596Z,3.20
2023-05-19T23:02:13.753Z,3.10
2023-05-19T23:04:40.995Z,3.40
2023-05-19T23:07:08.129Z,3.70
2023-05-19T23:09:35.269Z,3.27
2023-05-19T23:12:02.399Z,3.30
2023-05-19T23:14:29.588Z,3.27
2023-05-19T23:16:56.767Z,3.67
2023-05-19T23:19:24.018Z,3.77
2023-05-19T23:21:51.269Z,3.77
2023-05-19T23:24:18.506Z,3.70
2023-05-19T23:26:45.869Z,4.03
2023-05-19T23:29:13.557Z,3.30
2023-05-19T23:31:41.295Z,3.80
2023-05-19T23:34:08.805Z,3.93
2023-05-19T23:36:36.660Z,4.10
2023-05-19T23:39:03.915Z,3.80
2023-05-19T23:41:31.461Z,4.10
2023-05-19T23:43:58.654Z,3.77
2023-05-19T23:46:25.953Z,4.10
2023-05-19T23:48:53.193Z,3.70
2023-05-19T23:51:20.389Z,3.73
2023-05-19T23:53:47.512Z,3.70
2023-05-19T23:56:14.679Z,3.80
2023-05-19T23:58:41.874Z,3.53
